Relevés horaires Interlaken (Suisse)


Relevés horaires à Interlaken - Samedi 08 Mai 2004
Heure UTC1 Température [°C] Vent [km/h] Hum. [%] Pres.4 [hPa] Visi. [Km] Nébu. [octa] Préc.5 [mm] Cond.
2m. Res. Ros. Dir.2 Vit. Moy. Raf.3
23:00 7.9 5.1 0.1 O 16.7 -- -- 58 1007.2 -- -- -- --
22:00 8.0 5.2 0.0 O 16.7 -- -- 57 1007 -- -- -- --
21:00 8.4 4.8 -0.4 O 25.9 -- 42.6 54 1007(0.5/3h) -- -- -- --
20:00 8.4 5.3 -0.8 O 20.4 -- -- 52 1006.6 -- -- -- --
19:00 8.5 6.1 -0.8 O 14.8 -- -- 52 1006.5 -- -- -- --
18:00 9.3 7.1 -1.8 O 14.8 -- 42.6 46 1006.2(0.5/3h) -- -- 0/0h
--
17:00 9.4 6.8 -2.3 OSO 18.5 -- -- 44 1006.2 -- -- -- --
16:00 9.7 7.6 -1.8 OSO 14.8 -- -- 44 1006.3 -- -- -- --
15:00 10.8 8.9 -2.3 S 14.8 -- -- 40 1005.3 -- -- -- --
14:00 11.1 9.1 -1.4 SSE 16.7 -- -- 42 1005.8 -- -- -- --
13:00 11.1 9.5 -0.7 SSE 13.0 -- -- 44 1006.2 -- -- -- --
12:00 10.0 9.6 -1.3 O 5.6 -- -- 45 1006.6 -- -- 0/0h
--
11:00 10.0 7.7 -0.3 O 16.7 -- -- 49 1006.6 -- -- -- --
10:00 8.5 8.5 2.5 NE 3.7 -- -- 66 1006.7 -- -- -- --
09:00 6.8 6.8 2.4 N 1.9 -- -- 73 1007.1(0.2/3h) -- -- -- --
08:00 6.1 6.1 3.6 NE 1.9 -- -- 84 1007.6 -- -- -- --
07:00 5.2 5.2 2.2 NNO 0.0 -- -- 81 1007.4 -- -- -- --
06:00 4.2 2.4 2.1 SSO 7.4 -- -- 86 1007.5(0.5/3h) -- -- 0.9/12h
--
05:00 3.4 3.4 1.9 ESE 1.9 -- -- 90 1007.4 -- -- -- --
04:00 3.0 3.0 1.5 SE 1.9 -- -- 90 1007.4 -- -- -- --
03:00 2.1 0.5 0.5 SO 5.6 -- -- 89 1007.6 -- -- -- --
02:00 3.4 3.4 1.6 SO 3.7 -- -- 88 1007.4 -- -- -- --
01:00 3.7 2.4 1.9 SO 5.6 -- -- 88 1007.5 -- -- -- --
00:00 4.7 4.7 2.6 OSO 1.9 -- -- 86 1007.6(0.1/3h) -- -- -- --

1 Coordinated Universal Time. Actuellement il est 18:00 locale et 16:00 UTC.

2 Le vent souffle depuis la direction indiquée vers la direction oposée.

3 Les rafales max. sont disponible 40 min après l'heure du relevé.

4 Pour les stations d'altitude (plus de 600m) le géopotentiel du niveau le plus proche de la pression obligatoire est indiqué.

5 Les stations disposant d'un diffuseur peuvent indiquer "trace". Cela signifie que des précipitations ont touchés le sol mais que la quantité est inférieure à 0.1 mm.

Copyright

Les données affichées sur cette page sont la propriété exclusive de Météo Suisse.

Récapitulatif de la journée
Température [°C] Vent [km/h] Ensoleillement4 [h] Precipitations totale5 [mm] Pression [Hpa]
Min1 Max.2 Moy.3 Max. Min Max.
2.1 11.4 0 42.6 0 h 12 min 1 1005.3 1007.6

1 Température minimale relevée entre 18:00 UTC la veille et 18:00 UTC le jour donné.

2 Température maximale relevée entre 06:00 UTC le jour donné et 06:00 UTC le lendemain.

3 Vent moyen de la journée basé sur les relevés horaires.

4 Ensoleillement en heures relevé entre 06:00 UTC la veille et 06:00 UTC le jour donné.

5 Précipitations totales tombées entre 06:00 UTC la jour donné et 06:00 UTC le lendemain.

Graphiques horaires